Reno, NV (89501)

12:51 PM PST on February 10, 2016 (GMT -0800)
UNR Campus, LMR Roof | | Change Station
CLOSE
Current Station
Personal Weather Station
Location: Reno, NV
Elevation: 4570 ft
Nearby Weather Stations

Elev 4570 ft 39.54 °N, 119.81 °W | Updated 51 seconds ago

Mostly Cloudy
Mostly Cloudy
59.5 °F
Feels Like 59.5 °F
N
0.0
Wind Variable Wind from SE

Today
High -- | Low -- °F
--% Chance of Precip.
Yesterday
High -- | Low -- °F
Precip. -- in
Pressure 30.36 in
Visibility 10.0 miles
Clouds Mostly Cloudy 22000 ft
Dew Point 30 °F
Humidity 32%
Rainfall 0.00 in
Snow Depth Not available.
6:57 AM 5:29 PM
Waxing Crescent, 7% visible
METAR KRNO 101955Z 00000KT 10SM BKN220 12/00 A3039 RMK AO2 SLP280 T01220000
Pressure 30.36 in
Visibility 10.0 miles
Clouds Mostly Cloudy 22000 ft
Dew Point 30 °F
Humidity 32%
Rainfall 0.00 in
Snow Depth Not available.
6:57 AM 5:29 PM
Waxing Crescent, 7% visible
METAR KRNO 101955Z 00000KT 10SM BKN220 12/00 A3039 RMK AO2 SLP280 T01220000

10-Day Weather Forecast

Almanac

Astronomy

Feb. 10, 2016 Rise Set
Actual Time
Civil Twilight
Nautical Twilight
Astronomical Twilight
Moon
Length of Visible Light
Length of Day
Tomorrow will be .
, % of the Moon is Illuminated

Today's Extremes

State Highs State Lows

Community

WunderPhotos

Upload Photos

1,891,945 photos uploaded!

WunderBlog® & News

Nearby

Air Quality

  Air Quality AQ Index Pollutant
Not available.

Snow Depth

Station Depth Elevation

Earthquake Activity

City Distance Mag. Time & Date
Minimum magnitude displayed is 2.5.

Coastal Water Temperatures

Place Temperature

Stations

Nearby Weather Stations

Station Location Temp. Windchill Dew Point Humidity Wind Precip. Elev Updated Type
                   

Watches & Warnings

There are currently no watches in effect.